sensor_id;sensor_type;location;lat;lon;timestamp;temperature;humidity
18541;DHT22;9400;50.924;5.328;2023-08-21T00:01:27;22.40;99.90
18541;DHT22;9400;50.924;5.328;2023-08-21T00:03:54;22.30;99.90
18541;DHT22;9400;50.924;5.328;2023-08-21T00:06:21;22.30;99.90
18541;DHT22;9400;50.924;5.328;2023-08-21T00:08:49;22.30;99.90
18541;DHT22;9400;50.924;5.328;2023-08-21T00:11:18;22.20;99.90
18541;DHT22;9400;50.924;5.328;2023-08-21T00:13:46;22.20;99.90
18541;DHT22;9400;50.924;5.328;2023-08-21T00:16:16;22.30;99.90
18541;DHT22;9400;50.924;5.328;2023-08-21T00:18:44;22.30;99.90
18541;DHT22;9400;50.924;5.328;2023-08-21T00:21:11;22.10;99.90
18541;DHT22;9400;50.924;5.328;2023-08-21T00:23:39;21.90;99.90
18541;DHT22;9400;50.924;5.328;2023-08-21T00:26:06;22.00;99.90
18541;DHT22;9400;50.924;5.328;2023-08-21T00:28:35;22.00;99.90
18541;DHT22;9400;50.924;5.328;2023-08-21T00:31:03;22.00;99.90
18541;DHT22;9400;50.924;5.328;2023-08-21T00:33:33;21.90;99.90
18541;DHT22;9400;50.924;5.328;2023-08-21T00:36:00;21.90;99.90
18541;DHT22;9400;50.924;5.328;2023-08-21T00:38:27;21.90;99.90
18541;DHT22;9400;50.924;5.328;2023-08-21T00:40:55;21.90;99.90
18541;DHT22;9400;50.924;5.328;2023-08-21T00:43:23;21.80;99.90
18541;DHT22;9400;50.924;5.328;2023-08-21T00:45:53;21.80;99.90
18541;DHT22;9400;50.924;5.328;2023-08-21T00:48:21;21.70;99.90
18541;DHT22;9400;50.924;5.328;2023-08-21T00:50:48;21.80;99.90
18541;DHT22;9400;50.924;5.328;2023-08-21T00:53:16;21.70;99.90
18541;DHT22;9400;50.924;5.328;2023-08-21T00:55:45;21.70;99.90
18541;DHT22;9400;50.924;5.328;2023-08-21T00:58:13;21.70;99.90
18541;DHT22;9400;50.924;5.328;2023-08-21T01:00:41;21.70;99.90
18541;DHT22;9400;50.924;5.328;2023-08-21T01:03:10;21.70;99.90
18541;DHT22;9400;50.924;5.328;2023-08-21T01:05:38;21.60;99.90
18541;DHT22;9400;50.924;5.328;2023-08-21T01:08:09;21.50;99.90
18541;DHT22;9400;50.924;5.328;2023-08-21T01:10:45;21.60;99.90
18541;DHT22;9400;50.924;5.328;2023-08-21T01:13:23;21.60;99.90
18541;DHT22;9400;50.924;5.328;2023-08-21T01:15:55;21.70;99.90
18541;DHT22;9400;50.924;5.328;2023-08-21T01:18:24;21.50;99.90
18541;DHT22;9400;50.924;5.328;2023-08-21T01:20:54;21.50;99.90
18541;DHT22;9400;50.924;5.328;2023-08-21T01:23:33;21.50;99.90
18541;DHT22;9400;50.924;5.328;2023-08-21T01:26:01;21.50;99.90
18541;DHT22;9400;50.924;5.328;2023-08-21T01:28:28;21.50;99.90
18541;DHT22;9400;50.924;5.328;2023-08-21T01:31:01;21.60;99.90
18541;DHT22;9400;50.924;5.328;2023-08-21T01:33:35;21.60;99.90
18541;DHT22;9400;50.924;5.328;2023-08-21T01:36:05;21.50;99.90
18541;DHT22;9400;50.924;5.328;2023-08-21T01:38:34;21.50;99.90
18541;DHT22;9400;50.924;5.328;2023-08-21T01:41:02;21.50;99.90
18541;DHT22;9400;50.924;5.328;2023-08-21T01:43:30;21.40;99.90
18541;DHT22;9400;50.924;5.328;2023-08-21T01:45:57;21.40;99.90
18541;DHT22;9400;50.924;5.328;2023-08-21T01:48:25;21.50;99.90
18541;DHT22;9400;50.924;5.328;2023-08-21T01:50:52;21.40;99.90
18541;DHT22;9400;50.924;5.328;2023-08-21T01:53:20;21.30;99.90
18541;DHT22;9400;50.924;5.328;2023-08-21T01:55:49;21.20;99.90
18541;DHT22;9400;50.924;5.328;2023-08-21T01:58:16;21.20;99.90
18541;DHT22;9400;50.924;5.328;2023-08-21T02:00:46;21.10;99.90
18541;DHT22;9400;50.924;5.328;2023-08-21T02:03:14;21.10;99.90
18541;DHT22;9400;50.924;5.328;2023-08-21T02:05:41;21.00;99.90
18541;DHT22;9400;50.924;5.328;2023-08-21T02:08:13;21.10;99.90
18541;DHT22;9400;50.924;5.328;2023-08-21T02:10:50;21.00;99.90
18541;DHT22;9400;50.924;5.328;2023-08-21T02:13:18;21.00;99.90
18541;DHT22;9400;50.924;5.328;2023-08-21T02:15:46;20.90;99.90
18541;DHT22;9400;50.924;5.328;2023-08-21T02:18:13;20.90;99.90
18541;DHT22;9400;50.924;5.328;2023-08-21T02:20:42;20.90;99.90
18541;DHT22;9400;50.924;5.328;2023-08-21T02:23:09;20.80;99.90
18541;DHT22;9400;50.924;5.328;2023-08-21T02:25:37;20.70;99.90
18541;DHT22;9400;50.924;5.328;2023-08-21T02:28:06;20.70;99.90
18541;DHT22;9400;50.924;5.328;2023-08-21T02:30:35;20.60;99.90
18541;DHT22;9400;50.924;5.328;2023-08-21T02:33:03;20.60;99.90
18541;DHT22;9400;50.924;5.328;2023-08-21T02:35:30;20.60;99.90
18541;DHT22;9400;50.924;5.328;2023-08-21T02:37:58;20.40;99.90
18541;DHT22;9400;50.924;5.328;2023-08-21T02:40:25;20.50;99.90
18541;DHT22;9400;50.924;5.328;2023-08-21T02:42:53;20.50;99.90
18541;DHT22;9400;50.924;5.328;2023-08-21T02:45:22;20.60;99.90
18541;DHT22;9400;50.924;5.328;2023-08-21T02:47:50;20.60;99.90
18541;DHT22;9400;50.924;5.328;2023-08-21T02:50:18;20.60;99.90
18541;DHT22;9400;50.924;5.328;2023-08-21T02:52:45;20.30;99.90
18541;DHT22;9400;50.924;5.328;2023-08-21T02:55:13;20.20;99.90
18541;DHT22;9400;50.924;5.328;2023-08-21T02:57:41;20.30;99.90
18541;DHT22;9400;50.924;5.328;2023-08-21T03:00:10;20.30;99.90
18541;DHT22;9400;50.924;5.328;2023-08-21T03:02:40;20.20;99.90
18541;DHT22;9400;50.924;5.328;2023-08-21T03:05:10;20.20;99.90
18541;DHT22;9400;50.924;5.328;2023-08-21T03:07:37;20.10;99.90
18541;DHT22;9400;50.924;5.328;2023-08-21T03:10:06;20.10;99.90
18541;DHT22;9400;50.924;5.328;2023-08-21T03:12:34;20.10;99.90
18541;DHT22;9400;50.924;5.328;2023-08-21T03:15:01;20.10;99.90
18541;DHT22;9400;50.924;5.328;2023-08-21T03:17:30;20.10;99.90
18541;DHT22;9400;50.924;5.328;2023-08-21T03:19:59;20.20;99.90
18541;DHT22;9400;50.924;5.328;2023-08-21T03:22:30;20.20;99.90
18541;DHT22;9400;50.924;5.328;2023-08-21T03:24:59;20.00;99.90
18541;DHT22;9400;50.924;5.328;2023-08-21T03:27:26;20.00;99.90
18541;DHT22;9400;50.924;5.328;2023-08-21T03:29:54;20.00;99.90
18541;DHT22;9400;50.924;5.328;2023-08-21T03:32:21;20.10;99.90
18541;DHT22;9400;50.924;5.328;2023-08-21T03:34:49;20.00;99.90
18541;DHT22;9400;50.924;5.328;2023-08-21T03:37:17;20.10;99.90
18541;DHT22;9400;50.924;5.328;2023-08-21T03:39:45;20.10;99.90
18541;DHT22;9400;50.924;5.328;2023-08-21T03:42:12;20.00;99.90
18541;DHT22;9400;50.924;5.328;2023-08-21T03:44:40;20.00;99.90
18541;DHT22;9400;50.924;5.328;2023-08-21T03:47:07;20.00;99.90
18541;DHT22;9400;50.924;5.328;2023-08-21T03:49:36;20.10;99.90
18541;DHT22;9400;50.924;5.328;2023-08-21T03:52:04;20.10;99.90
18541;DHT22;9400;50.924;5.328;2023-08-21T03:54:33;20.10;99.90
18541;DHT22;9400;50.924;5.328;2023-08-21T03:57:01;20.00;99.90
18541;DHT22;9400;50.924;5.328;2023-08-21T03:59:28;19.90;99.90
18541;DHT22;9400;50.924;5.328;2023-08-21T04:01:56;19.90;99.90
18541;DHT22;9400;50.924;5.328;2023-08-21T04:04:27;19.60;99.90
18541;DHT22;9400;50.924;5.328;2023-08-21T04:06:55;19.60;99.90
18541;DHT22;9400;50.924;5.328;2023-08-21T04:09:23;19.70;99.90
18541;DHT22;9400;50.924;5.328;2023-08-21T04:11:53;19.60;99.90
18541;DHT22;9400;50.924;5.328;2023-08-21T04:14:21;19.80;99.90
18541;DHT22;9400;50.924;5.328;2023-08-21T04:16:48;19.70;99.90
18541;DHT22;9400;50.924;5.328;2023-08-21T04:19:16;19.70;99.90
18541;DHT22;9400;50.924;5.328;2023-08-21T04:21:43;19.50;99.90
18541;DHT22;9400;50.924;5.328;2023-08-21T04:24:10;19.50;99.90
18541;DHT22;9400;50.924;5.328;2023-08-21T04:26:38;19.40;99.90
18541;DHT22;9400;50.924;5.328;2023-08-21T04:29:07;19.30;99.90
18541;DHT22;9400;50.924;5.328;2023-08-21T04:31:34;19.40;99.90
18541;DHT22;9400;50.924;5.328;2023-08-21T04:34:02;19.10;99.90
18541;DHT22;9400;50.924;5.328;2023-08-21T04:36:29;19.10;99.90
18541;DHT22;9400;50.924;5.328;2023-08-21T04:38:57;19.20;99.90
18541;DHT22;9400;50.924;5.328;2023-08-21T04:41:24;19.30;99.90
18541;DHT22;9400;50.924;5.328;2023-08-21T04:43:51;19.30;99.90
18541;DHT22;9400;50.924;5.328;2023-08-21T04:46:20;19.40;99.90
18541;DHT22;9400;50.924;5.328;2023-08-21T04:48:48;19.40;99.90
18541;DHT22;9400;50.924;5.328;2023-08-21T04:51:16;19.50;99.90
18541;DHT22;9400;50.924;5.328;2023-08-21T04:53:43;19.40;99.90
18541;DHT22;9400;50.924;5.328;2023-08-21T04:56:11;19.40;99.90
18541;DHT22;9400;50.924;5.328;2023-08-21T04:58:38;19.50;99.90
18541;DHT22;9400;50.924;5.328;2023-08-21T05:01:05;19.50;99.90
18541;DHT22;9400;50.924;5.328;2023-08-21T05:03:34;19.50;99.90
18541;DHT22;9400;50.924;5.328;2023-08-21T05:06:02;19.50;99.90
18541;DHT22;9400;50.924;5.328;2023-08-21T05:08:30;19.50;99.90
18541;DHT22;9400;50.924;5.328;2023-08-21T05:10:58;19.60;99.90
18541;DHT22;9400;50.924;5.328;2023-08-21T05:13:26;19.60;99.90
18541;DHT22;9400;50.924;5.328;2023-08-21T05:15:55;19.80;99.90
18541;DHT22;9400;50.924;5.328;2023-08-21T05:18:23;19.80;99.90
18541;DHT22;9400;50.924;5.328;2023-08-21T05:20:55;19.80;99.90
18541;DHT22;9400;50.924;5.328;2023-08-21T05:23:22;19.70;99.90
18541;DHT22;9400;50.924;5.328;2023-08-21T05:25:50;19.70;99.90
18541;DHT22;9400;50.924;5.328;2023-08-21T05:28:17;19.80;99.90
18541;DHT22;9400;50.924;5.328;2023-08-21T05:30:47;19.80;99.90
18541;DHT22;9400;50.924;5.328;2023-08-21T05:33:14;19.90;99.90
18541;DHT22;9400;50.924;5.328;2023-08-21T05:35:42;20.00;99.90
18541;DHT22;9400;50.924;5.328;2023-08-21T05:38:11;20.00;99.90
18541;DHT22;9400;50.924;5.328;2023-08-21T05:40:40;20.00;99.90
18541;DHT22;9400;50.924;5.328;2023-08-21T05:43:07;20.10;99.90
18541;DHT22;9400;50.924;5.328;2023-08-21T05:45:35;20.10;99.90
18541;DHT22;9400;50.924;5.328;2023-08-21T05:48:03;20.10;99.90
18541;DHT22;9400;50.924;5.328;2023-08-21T05:50:30;20.20;99.90
18541;DHT22;9400;50.924;5.328;2023-08-21T05:52:58;20.20;99.90
18541;DHT22;9400;50.924;5.328;2023-08-21T05:55:29;20.20;99.90
18541;DHT22;9400;50.924;5.328;2023-08-21T05:57:56;20.30;99.90
18541;DHT22;9400;50.924;5.328;2023-08-21T06:00:24;20.20;99.90
18541;DHT22;9400;50.924;5.328;2023-08-21T06:02:51;20.30;99.90
18541;DHT22;9400;50.924;5.328;2023-08-21T06:05:19;20.40;99.90
18541;DHT22;9400;50.924;5.328;2023-08-21T06:07:46;20.50;99.90
18541;DHT22;9400;50.924;5.328;2023-08-21T06:10:14;20.50;99.90
18541;DHT22;9400;50.924;5.328;2023-08-21T06:12:43;20.50;99.90
18541;DHT22;9400;50.924;5.328;2023-08-21T06:15:11;20.40;99.90
18541;DHT22;9400;50.924;5.328;2023-08-21T06:17:39;20.50;99.90
18541;DHT22;9400;50.924;5.328;2023-08-21T06:20:08;20.70;99.90
18541;DHT22;9400;50.924;5.328;2023-08-21T06:22:35;20.80;99.90
18541;DHT22;9400;50.924;5.328;2023-08-21T06:25:03;20.70;99.90
18541;DHT22;9400;50.924;5.328;2023-08-21T06:27:31;20.80;99.90
18541;DHT22;9400;50.924;5.328;2023-08-21T06:29:59;20.80;99.90
18541;DHT22;9400;50.924;5.328;2023-08-21T06:32:27;20.80;99.90
18541;DHT22;9400;50.924;5.328;2023-08-21T06:34:55;21.00;99.90
18541;DHT22;9400;50.924;5.328;2023-08-21T06:37:23;20.90;99.90
18541;DHT22;9400;50.924;5.328;2023-08-21T06:39:51;21.10;99.90
18541;DHT22;9400;50.924;5.328;2023-08-21T06:42:18;21.10;99.90
18541;DHT22;9400;50.924;5.328;2023-08-21T06:44:46;21.10;99.90
18541;DHT22;9400;50.924;5.328;2023-08-21T06:47:15;21.10;99.90
18541;DHT22;9400;50.924;5.328;2023-08-21T06:49:42;21.20;99.90
18541;DHT22;9400;50.924;5.328;2023-08-21T06:52:09;21.20;99.90
18541;DHT22;9400;50.924;5.328;2023-08-21T06:54:37;21.30;99.90
18541;DHT22;9400;50.924;5.328;2023-08-21T06:57:05;21.30;99.90
18541;DHT22;9400;50.924;5.328;2023-08-21T06:59:32;21.40;99.90
18541;DHT22;9400;50.924;5.328;2023-08-21T07:02:02;21.40;99.90
18541;DHT22;9400;50.924;5.328;2023-08-21T07:04:31;21.50;99.90
18541;DHT22;9400;50.924;5.328;2023-08-21T07:06:59;21.50;99.90
18541;DHT22;9400;50.924;5.328;2023-08-21T07:09:27;21.50;99.90
18541;DHT22;9400;50.924;5.328;2023-08-21T07:11:54;21.50;99.90
18541;DHT22;9400;50.924;5.328;2023-08-21T07:14:22;21.70;99.90
18541;DHT22;9400;50.924;5.328;2023-08-21T07:16:50;21.90;99.90
18541;DHT22;9400;50.924;5.328;2023-08-21T07:19:17;21.70;99.90
18541;DHT22;9400;50.924;5.328;2023-08-21T07:21:46;21.80;99.90
18541;DHT22;9400;50.924;5.328;2023-08-21T07:24:14;21.90;99.90
18541;DHT22;9400;50.924;5.328;2023-08-21T07:26:41;22.00;99.90
18541;DHT22;9400;50.924;5.328;2023-08-21T07:29:08;22.00;99.90
18541;DHT22;9400;50.924;5.328;2023-08-21T07:31:36;22.20;99.90
18541;DHT22;9400;50.924;5.328;2023-08-21T07:34:03;22.30;99.90
18541;DHT22;9400;50.924;5.328;2023-08-21T07:36:31;22.50;99.90
18541;DHT22;9400;50.924;5.328;2023-08-21T07:39:01;22.50;99.90
18541;DHT22;9400;50.924;5.328;2023-08-21T07:41:28;22.40;99.90
18541;DHT22;9400;50.924;5.328;2023-08-21T07:43:56;22.60;99.90
18541;DHT22;9400;50.924;5.328;2023-08-21T07:46:23;22.70;99.90
18541;DHT22;9400;50.924;5.328;2023-08-21T07:48:52;22.70;99.90
18541;DHT22;9400;50.924;5.328;2023-08-21T07:51:20;23.00;99.90
18541;DHT22;9400;50.924;5.328;2023-08-21T07:53:47;22.90;99.90
18541;DHT22;9400;50.924;5.328;2023-08-21T07:56:16;22.80;99.90
18541;DHT22;9400;50.924;5.328;2023-08-21T07:58:44;22.80;99.90
18541;DHT22;9400;50.924;5.328;2023-08-21T08:01:11;22.90;99.90
18541;DHT22;9400;50.924;5.328;2023-08-21T08:03:38;23.00;99.90
18541;DHT22;9400;50.924;5.328;2023-08-21T08:06:06;23.20;99.90
18541;DHT22;9400;50.924;5.328;2023-08-21T08:08:33;23.10;99.90
18541;DHT22;9400;50.924;5.328;2023-08-21T08:11:02;23.00;99.90
18541;DHT22;9400;50.924;5.328;2023-08-21T08:13:31;23.00;99.90
18541;DHT22;9400;50.924;5.328;2023-08-21T08:15:59;23.20;99.90
18541;DHT22;9400;50.924;5.328;2023-08-21T08:18:27;23.30;99.90
18541;DHT22;9400;50.924;5.328;2023-08-21T08:20:54;23.20;99.90
18541;DHT22;9400;50.924;5.328;2023-08-21T08:23:21;23.30;99.90
18541;DHT22;9400;50.924;5.328;2023-08-21T08:25:49;23.20;99.90
18541;DHT22;9400;50.924;5.328;2023-08-21T08:28:17;23.40;99.90
18541;DHT22;9400;50.924;5.328;2023-08-21T08:30:46;23.60;99.90
18541;DHT22;9400;50.924;5.328;2023-08-21T08:33:14;23.60;99.90
18541;DHT22;9400;50.924;5.328;2023-08-21T08:35:41;23.70;99.90
18541;DHT22;9400;50.924;5.328;2023-08-21T08:38:08;23.70;99.90
18541;DHT22;9400;50.924;5.328;2023-08-21T08:40:41;23.70;99.90
18541;DHT22;9400;50.924;5.328;2023-08-21T08:43:11;23.80;99.90
18541;DHT22;9400;50.924;5.328;2023-08-21T08:45:40;23.90;99.90
18541;DHT22;9400;50.924;5.328;2023-08-21T08:48:10;24.20;99.90
18541;DHT22;9400;50.924;5.328;2023-08-21T08:50:39;24.30;99.90
18541;DHT22;9400;50.924;5.328;2023-08-21T08:53:07;24.50;99.90
18541;DHT22;9400;50.924;5.328;2023-08-21T08:55:35;24.50;99.90
18541;DHT22;9400;50.924;5.328;2023-08-21T08:58:03;24.70;99.90
18541;DHT22;9400;50.924;5.328;2023-08-21T09:00:31;24.70;99.90
18541;DHT22;9400;50.924;5.328;2023-08-21T09:02:59;24.70;99.90
18541;DHT22;9400;50.924;5.328;2023-08-21T09:05:28;24.70;99.90
18541;DHT22;9400;50.924;5.328;2023-08-21T09:08:03;24.70;99.90
18541;DHT22;9400;50.924;5.328;2023-08-21T09:10:31;24.70;99.90
18541;DHT22;9400;50.924;5.328;2023-08-21T09:12:59;24.90;99.90
18541;DHT22;9400;50.924;5.328;2023-08-21T09:15:28;24.90;99.90
18541;DHT22;9400;50.924;5.328;2023-08-21T09:17:56;24.70;99.90
18541;DHT22;9400;50.924;5.328;2023-08-21T09:20:24;24.90;99.90
18541;DHT22;9400;50.924;5.328;2023-08-21T09:22:54;25.10;99.90
18541;DHT22;9400;50.924;5.328;2023-08-21T09:25:23;25.10;99.90
18541;DHT22;9400;50.924;5.328;2023-08-21T09:27:52;25.30;99.90
18541;DHT22;9400;50.924;5.328;2023-08-21T09:30:20;25.30;99.90
18541;DHT22;9400;50.924;5.328;2023-08-21T09:32:54;25.30;99.90
18541;DHT22;9400;50.924;5.328;2023-08-21T09:35:22;25.60;99.90
18541;DHT22;9400;50.924;5.328;2023-08-21T09:37:50;25.50;99.90
18541;DHT22;9400;50.924;5.328;2023-08-21T09:40:21;25.20;99.90
18541;DHT22;9400;50.924;5.328;2023-08-21T09:42:52;25.30;99.90
18541;DHT22;9400;50.924;5.328;2023-08-21T09:45:21;25.50;99.90
18541;DHT22;9400;50.924;5.328;2023-08-21T09:47:49;25.70;99.90
18541;DHT22;9400;50.924;5.328;2023-08-21T09:50:18;25.80;99.90
18541;DHT22;9400;50.924;5.328;2023-08-21T09:52:46;26.10;99.90
18541;DHT22;9400;50.924;5.328;2023-08-21T09:55:14;26.00;99.90
18541;DHT22;9400;50.924;5.328;2023-08-21T09:57:43;25.80;99.90
18541;DHT22;9400;50.924;5.328;2023-08-21T10:00:11;25.90;99.90
18541;DHT22;9400;50.924;5.328;2023-08-21T10:02:43;26.00;99.90
18541;DHT22;9400;50.924;5.328;2023-08-21T10:05:15;26.20;99.90
18541;DHT22;9400;50.924;5.328;2023-08-21T10:07:44;26.40;99.90
18541;DHT22;9400;50.924;5.328;2023-08-21T10:10:13;26.60;99.90
18541;DHT22;9400;50.924;5.328;2023-08-21T10:12:42;26.50;99.90
18541;DHT22;9400;50.924;5.328;2023-08-21T10:15:10;26.50;99.90
18541;DHT22;9400;50.924;5.328;2023-08-21T10:17:37;26.70;99.90
18541;DHT22;9400;50.924;5.328;2023-08-21T10:20:06;26.50;99.90
18541;DHT22;9400;50.924;5.328;2023-08-21T10:22:43;26.70;99.90
18541;DHT22;9400;50.924;5.328;2023-08-21T10:25:21;26.80;99.90
18541;DHT22;9400;50.924;5.328;2023-08-21T10:27:55;26.90;99.90
18541;DHT22;9400;50.924;5.328;2023-08-21T10:30:24;27.00;99.90
18541;DHT22;9400;50.924;5.328;2023-08-21T10:32:53;27.00;99.90
18541;DHT22;9400;50.924;5.328;2023-08-21T10:35:22;26.80;99.90
18541;DHT22;9400;50.924;5.328;2023-08-21T10:38:10;26.90;99.90
18541;DHT22;9400;50.924;5.328;2023-08-21T10:40:38;26.80;99.90
18541;DHT22;9400;50.924;5.328;2023-08-21T10:43:38;26.70;99.90
18541;DHT22;9400;50.924;5.328;2023-08-21T10:46:05;26.50;99.90
18541;DHT22;9400;50.924;5.328;2023-08-21T10:48:33;26.80;99.90
18541;DHT22;9400;50.924;5.328;2023-08-21T10:51:02;27.00;99.90
18541;DHT22;9400;50.924;5.328;2023-08-21T10:53:34;27.50;99.90
18541;DHT22;9400;50.924;5.328;2023-08-21T10:56:02;27.70;99.90
18541;DHT22;9400;50.924;5.328;2023-08-21T10:58:34;27.90;99.90
18541;DHT22;9400;50.924;5.328;2023-08-21T11:01:04;27.70;99.90
18541;DHT22;9400;50.924;5.328;2023-08-21T11:03:31;27.60;99.90
18541;DHT22;9400;50.924;5.328;2023-08-21T11:06:05;27.90;99.90
18541;DHT22;9400;50.924;5.328;2023-08-21T11:08:34;27.80;99.90
18541;DHT22;9400;50.924;5.328;2023-08-21T11:11:03;27.80;99.90
18541;DHT22;9400;50.924;5.328;2023-08-21T11:13:31;28.20;99.90
18541;DHT22;9400;50.924;5.328;2023-08-21T11:16:00;28.40;99.90
18541;DHT22;9400;50.924;5.328;2023-08-21T11:18:33;28.20;99.90
18541;DHT22;9400;50.924;5.328;2023-08-21T11:21:05;28.70;99.90
18541;DHT22;9400;50.924;5.328;2023-08-21T11:23:33;28.80;99.90
18541;DHT22;9400;50.924;5.328;2023-08-21T11:26:01;29.00;99.90
18541;DHT22;9400;50.924;5.328;2023-08-21T11:28:30;29.00;99.90
18541;DHT22;9400;50.924;5.328;2023-08-21T11:30:58;29.10;99.90
18541;DHT22;9400;50.924;5.328;2023-08-21T11:33:26;28.80;99.90
18541;DHT22;9400;50.924;5.328;2023-08-21T11:35:56;28.20;99.90
18541;DHT22;9400;50.924;5.328;2023-08-21T11:38:26;27.90;99.90
18541;DHT22;9400;50.924;5.328;2023-08-21T11:40:55;27.80;99.90
18541;DHT22;9400;50.924;5.328;2023-08-21T11:43:34;28.40;99.90
18541;DHT22;9400;50.924;5.328;2023-08-21T11:46:01;28.30;99.90
18541;DHT22;9400;50.924;5.328;2023-08-21T11:48:29;28.30;99.90
18541;DHT22;9400;50.924;5.328;2023-08-21T11:50:58;28.80;99.90
18541;DHT22;9400;50.924;5.328;2023-08-21T11:53:34;28.60;99.90
18541;DHT22;9400;50.924;5.328;2023-08-21T11:56:02;28.70;99.90
18541;DHT22;9400;50.924;5.328;2023-08-21T11:58:30;28.10;99.90
18541;DHT22;9400;50.924;5.328;2023-08-21T12:01:03;28.10;99.90
18541;DHT22;9400;50.924;5.328;2023-08-21T12:03:35;28.00;99.90
18541;DHT22;9400;50.924;5.328;2023-08-21T12:06:06;27.70;99.90
18541;DHT22;9400;50.924;5.328;2023-08-21T12:08:34;27.70;99.90
18541;DHT22;9400;50.924;5.328;2023-08-21T12:11:02;27.60;99.90
18541;DHT22;9400;50.924;5.328;2023-08-21T12:13:29;27.60;99.90
18541;DHT22;9400;50.924;5.328;2023-08-21T12:15:57;27.70;99.90
18541;DHT22;9400;50.924;5.328;2023-08-21T12:18:24;28.50;99.90
18541;DHT22;9400;50.924;5.328;2023-08-21T12:20:52;29.20;99.90
18541;DHT22;9400;50.924;5.328;2023-08-21T12:23:20;29.90;99.90
18541;DHT22;9400;50.924;5.328;2023-08-21T12:25:48;30.90;99.90
18541;DHT22;9400;50.924;5.328;2023-08-21T12:28:15;31.40;99.90
18541;DHT22;9400;50.924;5.328;2023-08-21T12:30:42;31.00;99.90
18541;DHT22;9400;50.924;5.328;2023-08-21T12:33:10;31.10;99.90
18541;DHT22;9400;50.924;5.328;2023-08-21T12:35:38;31.40;99.90
18541;DHT22;9400;50.924;5.328;2023-08-21T12:38:11;31.40;99.90
18541;DHT22;9400;50.924;5.328;2023-08-21T12:40:41;31.80;99.90
18541;DHT22;9400;50.924;5.328;2023-08-21T12:43:08;31.80;99.90
18541;DHT22;9400;50.924;5.328;2023-08-21T12:45:36;32.40;99.90
18541;DHT22;9400;50.924;5.328;2023-08-21T12:48:04;33.10;99.90
18541;DHT22;9400;50.924;5.328;2023-08-21T12:50:31;33.30;99.90
18541;DHT22;9400;50.924;5.328;2023-08-21T12:53:00;33.30;99.90
18541;DHT22;9400;50.924;5.328;2023-08-21T12:55:28;32.50;99.90
18541;DHT22;9400;50.924;5.328;2023-08-21T12:57:57;32.40;99.90
18541;DHT22;9400;50.924;5.328;2023-08-21T13:00:25;32.30;99.90
18541;DHT22;9400;50.924;5.328;2023-08-21T13:02:52;32.30;99.90
18541;DHT22;9400;50.924;5.328;2023-08-21T13:05:20;32.40;99.90
18541;DHT22;9400;50.924;5.328;2023-08-21T13:07:47;32.60;99.90
18541;DHT22;9400;50.924;5.328;2023-08-21T13:10:15;33.80;99.90
18541;DHT22;9400;50.924;5.328;2023-08-21T13:12:43;34.20;99.90
18541;DHT22;9400;50.924;5.328;2023-08-21T13:15:12;34.40;99.90
18541;DHT22;9400;50.924;5.328;2023-08-21T13:17:39;34.50;99.90
18541;DHT22;9400;50.924;5.328;2023-08-21T13:20:09;34.90;99.90
18541;DHT22;9400;50.924;5.328;2023-08-21T13:22:47;34.90;99.90
18541;DHT22;9400;50.924;5.328;2023-08-21T13:25:15;35.30;99.90
18541;DHT22;9400;50.924;5.328;2023-08-21T13:27:43;35.10;99.90
18541;DHT22;9400;50.924;5.328;2023-08-21T13:30:14;35.20;99.90
18541;DHT22;9400;50.924;5.328;2023-08-21T13:32:42;35.50;99.90
18541;DHT22;9400;50.924;5.328;2023-08-21T13:35:10;35.50;99.90
18541;DHT22;9400;50.924;5.328;2023-08-21T13:37:39;34.80;99.90
18541;DHT22;9400;50.924;5.328;2023-08-21T13:40:07;34.80;99.90
18541;DHT22;9400;50.924;5.328;2023-08-21T13:42:37;34.70;99.90
18541;DHT22;9400;50.924;5.328;2023-08-21T13:45:08;35.70;99.90
18541;DHT22;9400;50.924;5.328;2023-08-21T13:47:38;36.40;99.90
18541;DHT22;9400;50.924;5.328;2023-08-21T13:50:07;37.30;99.90
18541;DHT22;9400;50.924;5.328;2023-08-21T13:52:35;36.90;99.90
18541;DHT22;9400;50.924;5.328;2023-08-21T13:55:04;37.20;99.90
18541;DHT22;9400;50.924;5.328;2023-08-21T13:57:32;37.40;99.90
18541;DHT22;9400;50.924;5.328;2023-08-21T14:00:00;36.70;99.90
18541;DHT22;9400;50.924;5.328;2023-08-21T14:02:27;37.20;99.90
18541;DHT22;9400;50.924;5.328;2023-08-21T14:04:56;37.90;99.90
18541;DHT22;9400;50.924;5.328;2023-08-21T14:07:23;37.70;99.90
18541;DHT22;9400;50.924;5.328;2023-08-21T14:09:51;37.50;99.90
18541;DHT22;9400;50.924;5.328;2023-08-21T14:12:19;38.30;99.90
18541;DHT22;9400;50.924;5.328;2023-08-21T14:14:46;38.30;99.90
18541;DHT22;9400;50.924;5.328;2023-08-21T14:17:13;37.70;99.90
18541;DHT22;9400;50.924;5.328;2023-08-21T14:19:41;36.90;99.90
18541;DHT22;9400;50.924;5.328;2023-08-21T14:22:10;37.50;99.90
18541;DHT22;9400;50.924;5.328;2023-08-21T14:24:37;36.90;99.90
18541;DHT22;9400;50.924;5.328;2023-08-21T14:27:05;38.00;99.90
18541;DHT22;9400;50.924;5.328;2023-08-21T14:29:32;38.90;99.90
18541;DHT22;9400;50.924;5.328;2023-08-21T14:32:00;38.70;99.90
18541;DHT22;9400;50.924;5.328;2023-08-21T14:34:28;38.40;99.90
18541;DHT22;9400;50.924;5.328;2023-08-21T14:36:55;38.10;99.90
18541;DHT22;9400;50.924;5.328;2023-08-21T14:39:25;37.20;99.90
18541;DHT22;9400;50.924;5.328;2023-08-21T14:41:56;38.00;99.90
18541;DHT22;9400;50.924;5.328;2023-08-21T14:44:24;38.90;99.90
18541;DHT22;9400;50.924;5.328;2023-08-21T14:46:53;40.00;99.90
18541;DHT22;9400;50.924;5.328;2023-08-21T14:49:21;39.40;99.90
18541;DHT22;9400;50.924;5.328;2023-08-21T14:51:49;38.40;99.90
18541;DHT22;9400;50.924;5.328;2023-08-21T14:54:17;38.90;99.90
18541;DHT22;9400;50.924;5.328;2023-08-21T14:56:46;39.10;99.90
18541;DHT22;9400;50.924;5.328;2023-08-21T14:59:14;38.70;99.90
18541;DHT22;9400;50.924;5.328;2023-08-21T15:01:41;39.50;99.90
18541;DHT22;9400;50.924;5.328;2023-08-21T15:04:09;37.60;99.90
18541;DHT22;9400;50.924;5.328;2023-08-21T15:06:38;35.50;99.90
18541;DHT22;9400;50.924;5.328;2023-08-21T15:09:05;33.60;99.90
18541;DHT22;9400;50.924;5.328;2023-08-21T15:11:33;32.90;99.90
18541;DHT22;9400;50.924;5.328;2023-08-21T15:14:03;32.30;99.90
18541;DHT22;9400;50.924;5.328;2023-08-21T15:16:31;32.00;99.90
18541;DHT22;9400;50.924;5.328;2023-08-21T15:18:58;32.00;99.90
18541;DHT22;9400;50.924;5.328;2023-08-21T15:21:26;31.90;99.90
18541;DHT22;9400;50.924;5.328;2023-08-21T15:23:53;33.50;99.90
18541;DHT22;9400;50.924;5.328;2023-08-21T15:26:21;33.90;99.90
18541;DHT22;9400;50.924;5.328;2023-08-21T15:28:48;35.60;99.90
18541;DHT22;9400;50.924;5.328;2023-08-21T15:31:17;36.60;99.90
18541;DHT22;9400;50.924;5.328;2023-08-21T15:33:45;36.30;99.90
18541;DHT22;9400;50.924;5.328;2023-08-21T15:36:13;37.30;99.90
18541;DHT22;9400;50.924;5.328;2023-08-21T15:38:40;37.80;99.90
18541;DHT22;9400;50.924;5.328;2023-08-21T15:41:08;38.60;99.90
18541;DHT22;9400;50.924;5.328;2023-08-21T15:43:35;38.30;99.90
18541;DHT22;9400;50.924;5.328;2023-08-21T15:46:03;38.40;99.90
18541;DHT22;9400;50.924;5.328;2023-08-21T15:48:33;37.80;99.90
18541;DHT22;9400;50.924;5.328;2023-08-21T15:51:01;36.90;99.90
18541;DHT22;9400;50.924;5.328;2023-08-21T15:53:30;37.50;99.90